Time;durP1;ratioP1;P1;durP2;ratioP2;P2;SDS_P1;SDS_P2;PMS_P1;PMS_P2;Temp;Humidity;BMP_temperature;BMP_pressure;BME280_temperature;BME280_humidity;BME280_pressure;Samples;Min_cycle;Max_cycle;Signal;HPM_P1;HPM_P2
2023/01/19 00:05:11;;;;;;;8.47;8.27;;;-0.60;99.90;;;;;;6136774;23;20214;-87
2023/01/19 00:14:14;;;;;;;8.27;8.07;;;-0.70;99.90;;;;;;6135190;23;20667;-88
2023/01/19 00:16:53;;;;;;;8.10;7.90;;;-0.80;99.90;;;;;;6137627;23;20209;-87
2023/01/19 00:19:43;;;;;;;8.20;8.00;;;-0.80;99.90;;;;;;6137659;23;20206;-86
2023/01/19 00:22:10;;;;;;;8.27;8.07;;;-0.90;99.90;;;;;;5911826;23;20270;-87
2023/01/19 00:24:41;;;;;;;7.90;7.70;;;-1.00;99.90;;;;;;6091163;23;20208;-87
2023/01/19 00:27:18;;;;;;;7.70;7.50;;;-1.00;99.90;;;;;;6109817;23;20228;-85
2023/01/19 00:29:57;;;;;;;8.10;7.90;;;-1.00;99.90;;;;;;6108990;23;20204;-86
2023/01/19 00:32:27;;;;;;;7.87;7.67;;;-1.00;99.90;;;;;;6111755;23;20208;-85
2023/01/19 00:34:56;;;;;;;7.70;7.50;;;-1.00;99.90;;;;;;6116139;23;20205;-85
2023/01/19 00:37:32;;;;;;;7.90;7.70;;;-1.10;99.90;;;;;;6120401;23;20211;-86
2023/01/19 00:40:04;;;;;;;8.10;7.90;;;-1.00;99.90;;;;;;6110999;23;20196;-85
2023/01/19 00:42:43;;;;;;;7.83;7.63;;;-1.00;99.90;;;;;;6126563;23;20170;-83
2023/01/19 00:45:20;;;;;;;8.00;7.80;;;-1.00;99.90;;;;;;6129563;23;20189;-85
2023/01/19 00:47:55;;;;;;;7.87;7.67;;;-1.00;99.90;;;;;;6129909;23;20207;-85
2023/01/19 00:50:34;;;;;;;7.77;7.57;;;-1.10;99.90;;;;;;6131106;23;20195;-84
2023/01/19 00:53:08;;;;;;;7.80;7.60;;;-1.10;99.90;;;;;;6129918;23;20193;-85
2023/01/19 00:55:41;;;;;;;7.70;7.50;;;-1.20;99.90;;;;;;6130681;23;20262;-84
2023/01/19 00:58:12;;;;;;;7.73;7.53;;;-1.20;99.90;;;;;;6131123;23;20193;-85
2023/01/19 01:00:43;;;;;;;7.63;7.43;;;-1.20;99.90;;;;;;6130504;23;20188;-84
2023/01/19 01:03:14;;;;;;;7.97;7.77;;;-1.30;99.90;;;;;;6131736;23;20188;-84
2023/01/19 01:05:51;;;;;;;7.73;7.53;;;-1.30;99.90;;;;;;6131016;23;20195;-84
2023/01/19 01:08:21;;;;;;;7.73;7.53;;;-1.40;99.90;;;;;;6131578;23;20258;-84
2023/01/19 01:10:52;;;;;;;7.57;7.37;;;-1.40;99.90;;;;;;6130788;23;20204;-84
2023/01/19 01:13:26;;;;;;;7.77;7.57;;;-1.50;99.90;;;;;;6131417;23;20193;-83
2023/01/19 01:16:08;;;;;;;7.90;7.70;;;-1.50;99.90;;;;;;6130396;23;20206;-84
2023/01/19 01:18:36;;;;;;;7.70;7.50;;;-1.50;99.90;;;;;;6131505;23;20207;-85
2023/01/19 01:21:12;;;;;;;7.53;7.33;;;-1.50;99.90;;;;;;6130343;23;20186;-84
2023/01/19 01:23:41;;;;;;;7.80;7.60;;;-1.60;99.90;;;;;;6130348;23;20256;-84
2023/01/19 01:26:14;;;;;;;8.00;7.80;;;-1.60;99.90;;;;;;6130529;23;20186;-84
2023/01/19 01:28:45;;;;;;;7.70;7.50;;;-1.60;99.90;;;;;;6130741;23;20201;-84
2023/01/19 01:31:18;;;;;;;8.00;7.80;;;-1.60;99.90;;;;;;6130904;23;20223;-84
2023/01/19 01:33:51;;;;;;;7.90;7.70;;;-1.60;99.90;;;;;;6130132;23;20213;-85
2023/01/19 01:39:08;;;;;;;7.63;7.43;;;-1.70;99.90;;;;;;6109429;23;20198;-85
2023/01/19 01:41:37;;;;;;;7.90;7.70;;;-1.70;99.90;;;;;;6125267;23;20205;-84
2023/01/19 01:44:50;;;;;;;8.00;7.80;;;-1.70;99.90;;;;;;6118387;23;20201;-85
2023/01/19 01:47:29;;;;;;;7.70;7.50;;;-1.70;99.90;;;;;;6110215;23;20238;-85
2023/01/19 01:50:13;;;;;;;7.90;7.70;;;-1.70;99.90;;;;;;6108577;23;20260;-85
2023/01/19 01:52:56;;;;;;;8.00;7.80;;;-1.70;99.90;;;;;;6108725;23;20243;-85
2023/01/19 01:55:31;;;;;;;7.80;7.60;;;-1.80;99.90;;;;;;6108026;23;20206;-85
2023/01/19 01:58:07;;;;;;;7.70;7.50;;;-1.80;99.90;;;;;;6112946;23;20193;-85
2023/01/19 02:03:35;;;;;;;7.90;7.70;;;-1.90;99.90;;;;;;6109774;23;20183;-85
2023/01/19 02:06:13;;;;;;;7.80;7.60;;;-1.90;99.90;;;;;;6109103;23;20267;-85
2023/01/19 02:14:25;;;;;;;7.50;7.30;;;-2.00;99.90;;;;;;6110522;23;20178;-85
2023/01/19 02:16:55;;;;;;;7.83;7.63;;;-2.00;99.90;;;;;;6109139;23;20217;-85
2023/01/19 02:19:34;;;;;;;7.67;7.47;;;-2.00;99.90;;;;;;6109273;23;20197;-85
2023/01/19 02:22:11;;;;;;;7.60;7.40;;;-2.00;99.90;;;;;;6109326;23;20270;-85
2023/01/19 02:24:48;;;;;;;7.80;7.60;;;-2.00;99.90;;;;;;6108650;23;20216;-85
2023/01/19 02:27:17;;;;;;;7.90;7.70;;;-2.10;99.90;;;;;;6109095;23;20255;-85
2023/01/19 02:29:53;;;;;;;8.00;7.80;;;-2.10;99.90;;;;;;6108702;23;20202;-85
2023/01/19 02:32:29;;;;;;;7.97;7.77;;;-2.10;99.90;;;;;;6109254;23;20203;-85
2023/01/19 02:35:01;;;;;;;7.93;7.73;;;-2.10;99.90;;;;;;6110673;23;20212;-85
2023/01/19 02:37:36;;;;;;;8.10;7.90;;;-2.10;99.90;;;;;;6110780;23;20208;-85
2023/01/19 02:40:13;;;;;;;8.10;7.90;;;-2.10;99.90;;;;;;6110132;23;20235;-85
2023/01/19 02:45:31;;;;;;;7.80;7.60;;;-2.00;99.90;;;;;;6110102;23;20214;-85
2023/01/19 02:48:01;;;;;;;8.00;7.80;;;-2.00;99.90;;;;;;6109810;23;20224;-85
2023/01/19 02:50:45;;;;;;;7.90;7.70;;;-2.00;99.90;;;;;;6109850;23;20201;-84
2023/01/19 02:57:21;;;;;;;7.83;7.63;;;-2.00;99.90;;;;;;6035450;23;20214;-84
2023/01/19 03:00:08;;;;;;;7.97;7.77;;;-2.00;99.90;;;;;;6106980;23;20290;-85
2023/01/19 03:02:58;;;;;;;8.07;7.87;;;-2.10;99.90;;;;;;6109075;23;20236;-84
2023/01/19 03:05:44;;;;;;;7.90;7.70;;;-2.20;99.90;;;;;;6108585;23;20216;-84
2023/01/19 03:08:21;;;;;;;8.00;7.80;;;-2.30;99.90;;;;;;6108461;23;20229;-85
2023/01/19 03:11:04;;;;;;;7.80;7.60;;;-2.40;99.90;;;;;;6109208;23;20271;-84
2023/01/19 03:13:59;;;;;;;8.10;7.90;;;-2.40;99.90;;;;;;6108422;23;20200;-84
2023/01/19 03:16:36;;;;;;;7.80;7.60;;;-2.50;99.90;;;;;;6108086;23;20209;-85
2023/01/19 03:19:11;;;;;;;8.07;7.87;;;-2.50;99.90;;;;;;6108410;23;20212;-84
2023/01/19 03:21:42;;;;;;;8.03;7.83;;;-2.60;99.90;;;;;;6108086;23;20198;-84
2023/01/19 03:24:13;;;;;;;8.07;7.87;;;-2.60;99.90;;;;;;6108166;23;20198;-84
2023/01/19 03:26:46;;;;;;;8.10;7.90;;;-2.60;99.90;;;;;;6107790;23;20222;-86
2023/01/19 03:29:26;;;;;;;7.73;7.53;;;-2.70;99.90;;;;;;6108573;23;20255;-84
2023/01/19 03:32:01;;;;;;;7.80;7.60;;;-2.60;99.90;;;;;;6108256;23;20197;-84
2023/01/19 03:34:31;;;;;;;7.90;7.70;;;-2.70;99.90;;;;;;6107405;23;20193;-84
2023/01/19 03:37:05;;;;;;;7.70;7.50;;;-2.70;99.90;;;;;;6107594;23;20254;-84
2023/01/19 03:39:33;;;;;;;7.90;7.70;;;-2.70;99.90;;;;;;6108023;23;20201;-84
2023/01/19 03:42:19;;;;;;;7.73;7.53;;;-2.70;99.90;;;;;;6108036;23;20207;-84
2023/01/19 03:45:00;;;;;;;7.80;7.60;;;-2.70;99.90;;;;;;6108326;23;20271;-85
2023/01/19 03:47:30;;;;;;;7.80;7.60;;;-2.70;99.90;;;;;;6108351;23;20229;-84
2023/01/19 03:50:10;;;;;;;8.03;7.83;;;-2.70;99.90;;;;;;6113252;23;20204;-84
2023/01/19 03:52:37;;;;;;;8.00;7.80;;;-2.70;99.90;;;;;;6109631;23;20200;-84
2023/01/19 03:55:08;;;;;;;8.37;8.17;;;-2.80;99.90;;;;;;6108909;23;20235;-84
2023/01/19 03:57:37;;;;;;;7.80;7.60;;;-2.80;99.90;;;;;;6109243;23;20208;-84
2023/01/19 04:00:08;;;;;;;7.90;7.70;;;-2.90;99.90;;;;;;6109311;23;20284;-84
2023/01/19 04:02:36;;;;;;;7.50;7.30;;;-2.90;99.90;;;;;;6109150;23;20271;-84
2023/01/19 04:05:11;;;;;;;7.73;7.53;;;-2.90;99.90;;;;;;6107877;23;20280;-84
2023/01/19 04:07:42;;;;;;;7.70;7.50;;;-2.90;99.90;;;;;;6107802;23;20189;-84
2023/01/19 04:10:17;;;;;;;7.67;7.47;;;-2.90;99.90;;;;;;6108070;23;20263;-84
2023/01/19 04:12:49;;;;;;;7.60;7.40;;;-2.90;99.90;;;;;;6107388;23;20203;-84
2023/01/19 04:15:21;;;;;;;7.80;7.60;;;-2.90;99.90;;;;;;6107671;23;20257;-84
2023/01/19 04:17:52;;;;;;;7.93;7.73;;;-2.90;99.90;;;;;;6107873;23;20211;-84
2023/01/19 04:20:26;;;;;;;8.10;7.90;;;-2.90;99.90;;;;;;6108807;23;20256;-84
2023/01/19 04:22:56;;;;;;;7.80;7.60;;;-2.90;99.90;;;;;;6114330;23;20206;-84
2023/01/19 04:25:26;;;;;;;7.97;7.77;;;-2.90;99.90;;;;;;6111211;23;20207;-85
2023/01/19 04:27:57;;;;;;;7.80;7.60;;;-2.90;99.90;;;;;;6109949;23;20204;-84
2023/01/19 04:33:11;;;;;;;7.50;7.30;;;-2.90;99.90;;;;;;6108153;23;20205;-84
2023/01/19 04:35:42;;;;;;;7.90;7.70;;;-2.90;99.90;;;;;;6107966;23;20200;-84
2023/01/19 04:38:12;;;;;;;8.10;7.90;;;-2.90;99.90;;;;;;6107963;23;20308;-84
2023/01/19 04:40:42;;;;;;;7.97;7.77;;;-2.90;99.90;;;;;;6107747;23;20222;-84
2023/01/19 04:43:25;;;;;;;7.90;7.70;;;-2.90;99.90;;;;;;6107445;23;20284;-84
2023/01/19 04:45:57;;;;;;;8.00;7.80;;;-3.00;99.90;;;;;;6107800;23;20210;-84
2023/01/19 04:48:27;;;;;;;7.80;7.60;;;-3.00;99.90;;;;;;6079532;23;20231;-84
2023/01/19 04:50:57;;;;;;;8.07;7.87;;;-3.00;99.90;;;;;;6078448;23;20332;-84
2023/01/19 04:53:26;;;;;;;7.60;7.40;;;-3.00;99.90;;;;;;6078552;23;20202;-84
2023/01/19 04:55:59;;;;;;;7.80;7.60;;;-3.00;99.90;;;;;;6078382;23;20255;-84
2023/01/19 04:58:26;;;;;;;8.00;7.80;;;-3.00;99.90;;;;;;6078868;23;20210;-84
2023/01/19 05:00:56;;;;;;;7.90;7.70;;;-3.10;99.90;;;;;;6078344;23;20205;-84
2023/01/19 05:03:25;;;;;;;7.70;7.50;;;-3.10;99.90;;;;;;6080776;23;20218;-84
2023/01/19 05:05:53;;;;;;;7.73;7.53;;;-3.10;99.90;;;;;;6079662;23;20207;-84
2023/01/19 05:08:23;;;;;;;7.50;7.30;;;-3.10;99.90;;;;;;6079953;23;20203;-84
2023/01/19 05:10:53;;;;;;;7.50;7.30;;;-3.10;99.90;;;;;;6090355;23;20227;-84
2023/01/19 05:13:23;;;;;;;7.60;7.40;;;-3.10;99.90;;;;;;6086633;23;20209;-84
2023/01/19 05:15:56;;;;;;;7.70;7.50;;;-3.10;99.90;;;;;;6081689;23;20230;-84
2023/01/19 05:18:28;;;;;;;7.70;7.50;;;-3.10;99.90;;;;;;6081604;23;20214;-84
2023/01/19 05:21:04;;;;;;;7.63;7.43;;;-3.10;99.90;;;;;;6086624;23;20195;-84
2023/01/19 05:23:36;;;;;;;7.77;7.57;;;-3.10;99.90;;;;;;6086943;23;20210;-84
2023/01/19 05:26:04;;;;;;;7.50;7.30;;;-3.10;99.90;;;;;;6080116;23;20210;-84
2023/01/19 05:28:36;;;;;;;7.60;7.40;;;-3.10;99.90;;;;;;6079543;23;20200;-83
2023/01/19 05:31:10;;;;;;;7.90;7.70;;;-3.10;99.90;;;;;;6080961;23;20190;-84
2023/01/19 05:33:42;;;;;;;7.97;7.77;;;-3.10;99.90;;;;;;6081599;23;20214;-84
2023/01/19 05:36:17;;;;;;;7.80;7.60;;;-3.10;99.90;;;;;;6080030;23;20214;-84
2023/01/19 05:38:47;;;;;;;7.83;7.63;;;-3.10;99.90;;;;;;6080391;23;20242;-84
2023/01/19 05:43:58;;;;;;;7.60;7.40;;;-3.10;99.90;;;;;;6079258;23;20299;-84
2023/01/19 05:46:48;;;;;;;7.60;7.40;;;-3.10;99.90;;;;;;6085395;23;20204;-84
2023/01/19 05:49:19;;;;;;;7.70;7.50;;;-3.10;99.90;;;;;;6109196;23;20205;-84
2023/01/19 05:51:46;;;;;;;7.73;7.53;;;-3.10;99.90;;;;;;6109657;23;20232;-84
2023/01/19 05:54:17;;;;;;;7.57;7.37;;;-3.10;99.90;;;;;;6109803;23;20214;-84
2023/01/19 05:57:03;;;;;;;7.40;7.20;;;-3.10;99.90;;;;;;6110322;23;20204;-84
2023/01/19 05:59:33;;;;;;;7.80;7.60;;;-3.10;99.90;;;;;;6109334;23;20218;-84
2023/01/19 06:02:08;;;;;;;7.50;7.30;;;-3.10;99.90;;;;;;6109421;23;20261;-84
2023/01/19 06:04:48;;;;;;;7.40;7.20;;;-3.10;99.90;;;;;;6109002;23;20204;-84
2023/01/19 06:07:19;;;;;;;7.70;7.50;;;-3.00;99.90;;;;;;6109938;23;20202;-84
2023/01/19 06:09:51;;;;;;;7.37;7.17;;;-3.00;99.90;;;;;;6114314;23;20214;-84
2023/01/19 06:12:24;;;;;;;7.20;7.00;;;-3.00;99.90;;;;;;6111700;23;20197;-84
2023/01/19 06:17:51;;;;;;;7.40;7.20;;;-3.00;99.90;;;;;;6109982;23;20205;-84
2023/01/19 06:20:21;;;;;;;7.50;7.30;;;-2.90;99.90;;;;;;6111800;23;20194;-84
2023/01/19 06:22:52;;;;;;;7.70;7.50;;;-3.00;99.90;;;;;;6109834;23;20200;-84
2023/01/19 06:25:19;;;;;;;7.50;7.30;;;-2.90;99.90;;;;;;6110031;23;20270;-84
2023/01/19 06:27:50;;;;;;;7.60;7.40;;;-3.00;99.90;;;;;;6110036;23;20203;-84
2023/01/19 06:30:24;;;;;;;7.63;7.43;;;-3.00;99.90;;;;;;6110290;23;20200;-83
2023/01/19 06:33:12;;;;;;;7.50;7.30;;;-3.00;99.90;;;;;;6109485;23;20205;-84
2023/01/19 06:35:51;;;;;;;7.50;7.30;;;-3.00;99.90;;;;;;6114322;23;20198;-84
2023/01/19 06:38:20;;;;;;;7.50;7.30;;;-3.00;99.90;;;;;;6111267;23;20216;-84
2023/01/19 06:41:01;;;;;;;7.60;7.40;;;-3.00;99.90;;;;;;6109982;23;20208;-84
2023/01/19 06:43:30;;;;;;;7.40;7.20;;;-3.10;99.90;;;;;;6115837;23;20202;-84
2023/01/19 06:45:59;;;;;;;7.40;7.20;;;-3.10;99.90;;;;;;6113566;23;20206;-84
2023/01/19 06:48:30;;;;;;;7.67;7.47;;;-3.20;99.90;;;;;;6109593;23;20231;-84
2023/01/19 06:50:57;;;;;;;7.90;7.70;;;-3.30;99.90;;;;;;6110146;23;20202;-84
2023/01/19 06:53:27;;;;;;;7.70;7.50;;;-3.30;99.90;;;;;;6109426;23;20194;-83
2023/01/19 06:55:59;;;;;;;7.63;7.43;;;-3.30;99.90;;;;;;6109466;23;20205;-84
2023/01/19 06:58:33;;;;;;;7.90;7.70;;;-3.30;99.90;;;;;;6110209;23;20198;-84
2023/01/19 07:01:03;;;;;;;8.10;7.90;;;-3.30;99.90;;;;;;6110433;23;20195;-84
2023/01/19 07:03:43;;;;;;;8.00;7.80;;;-3.30;99.90;;;;;;6110038;23;20257;-84
2023/01/19 07:06:14;;;;;;;7.90;7.70;;;-3.20;99.90;;;;;;6110190;23;20209;-85
2023/01/19 07:08:41;;;;;;;7.70;7.50;;;-3.30;99.90;;;;;;6111132;23;20235;-84
2023/01/19 07:11:20;;;;;;;7.77;7.57;;;-3.20;99.90;;;;;;6110702;23;20197;-84
2023/01/19 07:13:58;;;;;;;7.40;7.20;;;-3.20;99.90;;;;;;6109963;23;20217;-83
2023/01/19 07:16:28;;;;;;;7.80;7.60;;;-3.20;99.90;;;;;;6109630;23;20217;-84
2023/01/19 07:18:58;;;;;;;8.00;7.80;;;-3.20;99.90;;;;;;6109689;23;20255;-84
2023/01/19 07:21:26;;;;;;;7.67;7.47;;;-3.20;99.90;;;;;;6110319;23;20232;-84
2023/01/19 07:23:57;;;;;;;7.93;7.73;;;-3.20;99.90;;;;;;6109615;23;20211;-84
2023/01/19 07:26:26;;;;;;;7.97;7.77;;;-3.20;99.90;;;;;;6109235;23;20212;-84
2023/01/19 07:28:57;;;;;;;7.60;7.40;;;-3.20;99.90;;;;;;6109052;23;20194;-84
2023/01/19 07:31:24;;;;;;;7.90;7.70;;;-3.30;99.90;;;;;;6110298;23;20194;-84
2023/01/19 07:34:04;;;;;;;7.83;7.63;;;-3.20;99.90;;;;;;6109377;23;20205;-84
2023/01/19 07:36:37;;;;;;;7.77;7.57;;;-3.20;99.90;;;;;;6109638;23;20213;-84
2023/01/19 07:41:56;;;;;;;7.83;7.63;;;-3.10;99.90;;;;;;6109053;23;20249;-86
2023/01/19 07:44:26;;;;;;;8.45;8.25;;;-3.10;99.90;;;;;;6106929;23;20402;-84
2023/01/19 07:46:54;;;;;;;8.53;8.33;;;-3.10;99.90;;;;;;6107689;23;20220;-85
2023/01/19 07:49:24;;;;;;;8.00;7.80;;;-3.00;99.90;;;;;;6108030;23;20213;-85
2023/01/19 07:51:55;;;;;;;7.83;7.63;;;-2.90;99.90;;;;;;6106436;23;20196;-87
2023/01/19 07:54:25;;;;;;;7.90;7.70;;;-2.80;99.90;;;;;;6107641;23;20234;-87
2023/01/19 07:57:01;;;;;;;7.80;7.60;;;-2.70;99.90;;;;;;6111427;23;20281;-86
2023/01/19 07:59:31;;;;;;;7.83;7.63;;;-2.60;99.90;;;;;;6108215;23;20209;-86
2023/01/19 08:01:59;;;;;;;8.20;8.00;;;-2.60;99.90;;;;;;6109544;23;20199;-81
2023/01/19 08:04:28;;;;;;;9.10;8.80;;;-2.60;99.90;;;;;;6107988;23;20198;-80
2023/01/19 08:06:57;;;;;;;7.80;7.60;;;-2.40;99.90;;;;;;6109913;23;20249;-83
2023/01/19 08:09:25;;;;;;;7.60;7.40;;;-2.20;99.90;;;;;;6113488;23;20231;-84
2023/01/19 08:11:54;;;;;;;7.60;7.40;;;-2.20;99.90;;;;;;6109010;23;20284;-84
2023/01/19 08:14:22;;;;;;;7.80;7.60;;;-2.10;99.90;;;;;;6111129;23;20201;-85
2023/01/19 08:16:49;;;;;;;7.60;7.40;;;-2.10;99.90;;;;;;6114030;23;20208;-82
2023/01/19 08:19:18;;;;;;;7.40;7.20;;;-2.10;99.90;;;;;;6112212;23;20216;-85
2023/01/19 08:21:47;;;;;;;8.13;7.93;;;-2.10;99.90;;;;;;6112079;23;20207;-82
2023/01/19 08:24:20;;;;;;;7.93;7.73;;;-2.10;99.90;;;;;;6112481;23;20224;-82
2023/01/19 08:26:48;;;;;;;8.00;7.80;;;-2.10;99.90;;;;;;6112065;23;20338;-83
2023/01/19 08:29:16;;;;;;;8.30;8.10;;;-2.10;99.90;;;;;;6111588;23;20208;-82
2023/01/19 08:31:44;;;;;;;8.23;8.03;;;-2.10;99.90;;;;;;6110502;23;20737;-83
2023/01/19 08:34:11;;;;;;;8.40;8.20;;;-2.10;99.90;;;;;;6111972;23;20300;-84
2023/01/19 08:36:39;;;;;;;8.60;8.40;;;-2.00;99.90;;;;;;6112038;23;20200;-84
2023/01/19 08:39:08;;;;;;;8.43;8.23;;;-2.00;99.90;;;;;;6113129;23;20294;-84
2023/01/19 08:41:36;;;;;;;8.50;8.30;;;-2.00;99.90;;;;;;6112966;23;20199;-84
2023/01/19 08:44:03;;;;;;;8.23;8.03;;;-2.00;99.90;;;;;;6114386;23;20199;-84
2023/01/19 08:46:31;;;;;;;8.33;8.13;;;-2.00;99.90;;;;;;6112563;23;20219;-84
2023/01/19 08:48:58;;;;;;;8.50;8.30;;;-2.00;99.90;;;;;;6113673;23;20212;-84
2023/01/19 08:51:26;;;;;;;8.13;7.93;;;-1.90;99.90;;;;;;6112477;23;20201;-83
2023/01/19 08:53:54;;;;;;;8.20;8.00;;;-1.80;99.90;;;;;;6113982;23;20223;-82
2023/01/19 08:56:23;;;;;;;8.40;8.20;;;-1.80;99.90;;;;;;6118816;23;20200;-83
2023/01/19 08:58:50;;;;;;;8.47;8.27;;;-1.70;99.90;;;;;;6117040;23;20224;-84
2023/01/19 09:01:21;;;;;;;8.53;8.33;;;-1.60;99.90;;;;;;6108447;23;20288;-84
2023/01/19 09:03:49;;;;;;;8.90;8.70;;;-1.50;99.90;;;;;;6109125;23;20201;-84
2023/01/19 09:06:51;;;;;;;8.93;8.73;;;-1.50;99.90;;;;;;6108290;23;20213;-83
2023/01/19 09:09:18;;;;;;;9.20;8.90;;;-1.40;99.90;;;;;;6035043;23;20203;-83
2023/01/19 09:11:47;;;;;;;8.80;8.60;;;-1.30;99.90;;;;;;6113570;23;20233;-80
2023/01/19 09:14:15;;;;;;;9.20;8.90;;;-1.20;99.90;;;;;;6120549;23;20259;-80
2023/01/19 09:16:58;;;;;;;9.20;8.90;;;-1.00;99.90;;;;;;6034414;23;20211;-80
2023/01/19 09:19:26;;;;;;;9.33;9.03;;;-0.90;99.90;;;;;;6119264;23;20231;-80
2023/01/19 09:21:54;;;;;;;9.17;8.87;;;-0.90;99.90;;;;;;6116245;23;20205;-80
2023/01/19 09:24:22;;;;;;;9.60;9.30;;;-0.80;99.90;;;;;;6114802;23;20208;-80
2023/01/19 09:26:51;;;;;;;9.33;9.03;;;-0.80;99.90;;;;;;6113863;23;20249;-81
2023/01/19 09:29:19;;;;;;;9.37;9.07;;;-0.70;99.90;;;;;;6117355;23;20209;-81
2023/01/19 09:31:46;;;;;;;9.27;8.97;;;-0.70;99.90;;;;;;6115763;23;20198;-80
2023/01/19 09:34:14;;;;;;;9.30;9.00;;;-0.70;99.90;;;;;;6111683;23;20224;-83
2023/01/19 09:36:42;;;;;;;9.37;9.07;;;-0.60;99.90;;;;;;6112883;23;20284;-81
2023/01/19 09:39:10;;;;;;;9.50;9.20;;;-0.60;99.90;;;;;;6112417;23;20248;-82
2023/01/19 09:41:42;;;;;;;9.27;8.97;;;-0.50;99.90;;;;;;6112141;23;20321;-82
2023/01/19 09:44:18;;;;;;;9.33;9.03;;;-0.40;99.90;;;;;;6113912;23;20205;-82
2023/01/19 09:46:45;;;;;;;9.17;8.87;;;-0.40;99.90;;;;;;6114551;23;20201;-82
2023/01/19 09:49:16;;;;;;;9.00;8.80;;;-0.30;99.90;;;;;;6120000;23;20210;-82
2023/01/19 09:51:47;;;;;;;9.50;9.20;;;-0.20;99.90;;;;;;6117700;23;20205;-82
2023/01/19 09:54:22;;;;;;;9.30;9.00;;;0.00;99.90;;;;;;6116474;23;20205;-81
2023/01/19 09:56:50;;;;;;;9.20;8.90;;;0.10;99.90;;;;;;6116428;23;20217;-82
2023/01/19 09:59:35;;;;;;;9.27;8.97;;;0.20;99.90;;;;;;6112225;23;20206;-83
2023/01/19 10:02:21;;;;;;;9.20;8.90;;;0.30;99.90;;;;;;6112817;23;20218;-83
2023/01/19 10:05:00;;;;;;;9.10;8.80;;;0.30;99.90;;;;;;6114823;23;20233;-80
2023/01/19 10:07:44;;;;;;;9.10;8.90;;;0.50;99.90;;;;;;6113957;23;20276;-82
2023/01/19 10:10:21;;;;;;;9.20;8.90;;;0.60;99.90;;;;;;6114493;23;20245;-82
2023/01/19 10:13:17;;;;;;;9.30;9.00;;;0.60;99.90;;;;;;6112557;23;20204;-83
2023/01/19 10:15:59;;;;;;;9.40;9.10;;;0.60;99.90;;;;;;6110520;23;20207;-83
2023/01/19 10:18:33;;;;;;;9.60;9.30;;;0.60;99.90;;;;;;6110405;23;20202;-82
2023/01/19 10:21:09;;;;;;;9.47;9.17;;;0.60;99.90;;;;;;6110599;23;20206;-82
2023/01/19 10:23:42;;;;;;;9.40;9.10;;;0.70;99.90;;;;;;6112749;23;20272;-83
2023/01/19 10:26:17;;;;;;;9.43;9.13;;;0.80;99.90;;;;;;6112698;23;20209;-83
2023/01/19 10:28:49;;;;;;;9.60;9.30;;;0.90;99.90;;;;;;6113774;23;20244;-83
2023/01/19 10:31:22;;;;;;;9.53;9.23;;;0.90;99.90;;;;;;6112007;23;20245;-82
2023/01/19 10:33:51;;;;;;;9.40;9.10;;;0.90;99.90;;;;;;6106694;23;20201;-81
2023/01/19 10:36:21;;;;;;;9.80;9.50;;;0.80;99.90;;;;;;6110175;23;20213;-82
2023/01/19 10:38:49;;;;;;;9.43;9.13;;;0.80;99.90;;;;;;6110173;23;20197;-86
2023/01/19 10:41:26;;;;;;;9.20;8.90;;;0.80;99.90;;;;;;6110267;23;20216;-83
2023/01/19 10:44:04;;;;;;;9.43;9.13;;;0.80;99.90;;;;;;6109536;23;20189;-86
2023/01/19 10:46:46;;;;;;;9.50;9.20;;;0.80;99.90;;;;;;6112847;23;20223;-85
2023/01/19 10:49:30;;;;;;;9.70;9.40;;;0.80;99.90;;;;;;6112710;23;20202;-85
2023/01/19 10:51:59;;;;;;;9.80;9.50;;;0.80;99.90;;;;;;6112250;23;20190;-84
2023/01/19 10:54:28;;;;;;;9.60;9.30;;;0.80;99.90;;;;;;6121358;23;20189;-84
2023/01/19 10:57:02;;;;;;;9.57;9.27;;;0.90;99.90;;;;;;6122128;23;20194;-86
2023/01/19 10:59:37;;;;;;;9.70;9.40;;;0.90;99.90;;;;;;6115640;23;20234;-83
2023/01/19 11:02:19;;;;;;;9.50;9.20;;;0.90;99.90;;;;;;6113683;23;20261;-85
2023/01/19 11:04:48;;;;;;;9.80;9.50;;;0.90;99.90;;;;;;6112782;23;20260;-84
2023/01/19 11:07:21;;;;;;;9.40;9.10;;;1.00;99.90;;;;;;6114814;23;20193;-84
2023/01/19 11:09:49;;;;;;;9.60;9.30;;;1.10;99.90;;;;;;6113299;23;20194;-84
2023/01/19 11:12:23;;;;;;;9.40;9.10;;;1.20;99.90;;;;;;6111279;23;20197;-85
2023/01/19 11:14:52;;;;;;;9.57;9.27;;;1.40;99.90;;;;;;6112859;23;20198;-84
2023/01/19 11:17:26;;;;;;;9.33;9.03;;;1.80;99.90;;;;;;6115520;23;20209;-84
2023/01/19 11:19:58;;;;;;;9.50;9.20;;;2.20;99.90;;;;;;6113785;23;20228;-84
2023/01/19 11:22:29;;;;;;;9.30;9.00;;;2.50;99.90;;;;;;6113479;23;20728;-85
2023/01/19 11:25:02;;;;;;;9.30;9.00;;;2.60;99.90;;;;;;6111853;23;20221;-84
2023/01/19 11:27:34;;;;;;;9.30;9.00;;;2.60;99.90;;;;;;6111206;23;20198;-84
2023/01/19 11:30:09;;;;;;;9.37;9.07;;;2.60;99.90;;;;;;6111719;23;20229;-84
2023/01/19 11:32:38;;;;;;;9.47;9.17;;;2.30;99.90;;;;;;6111870;23;20233;-84
2023/01/19 11:35:48;;;;;;;9.90;9.60;;;2.10;99.90;;;;;;6111973;23;20230;-84
2023/01/19 11:38:26;;;;;;;9.60;9.30;;;1.90;99.90;;;;;;6113443;23;20284;-83
2023/01/19 11:40:56;;;;;;;9.47;9.17;;;1.80;99.90;;;;;;6111515;23;20248;-85
2023/01/19 11:43:31;;;;;;;9.50;9.20;;;1.80;99.90;;;;;;6111209;23;20253;-85
2023/01/19 11:46:02;;;;;;;9.00;8.80;;;1.70;99.90;;;;;;6110527;23;20205;-84
2023/01/19 11:48:37;;;;;;;9.13;8.83;;;1.80;99.90;;;;;;6110338;23;20194;-84
2023/01/19 11:51:12;;;;;;;9.10;8.80;;;1.80;99.90;;;;;;6109888;23;20249;-84
2023/01/19 11:53:48;;;;;;;9.20;8.90;;;1.90;99.90;;;;;;6110886;23;20272;-85
2023/01/19 11:58:57;;;;;;;9.10;8.80;;;2.00;99.90;;;;;;6109161;23;20280;-85
2023/01/19 12:01:38;;;;;;;9.10;8.80;;;1.90;99.90;;;;;;6109647;23;20250;-85
2023/01/19 12:04:13;;;;;;;9.20;8.90;;;2.00;99.90;;;;;;6110340;23;20281;-84
2023/01/19 12:06:56;;;;;;;8.90;8.70;;;2.00;99.90;;;;;;6111749;23;20208;-84
2023/01/19 12:09:42;;;;;;;9.10;8.80;;;2.00;99.90;;;;;;6113724;23;20193;-85
2023/01/19 12:12:23;;;;;;;8.73;8.53;;;2.10;99.90;;;;;;6111643;23;20210;-84
2023/01/19 12:14:57;;;;;;;9.20;8.90;;;2.10;99.90;;;;;;6110656;23;20213;-84
2023/01/19 12:17:46;;;;;;;9.43;9.13;;;2.10;99.90;;;;;;6111739;23;20201;-84
2023/01/19 12:20:34;;;;;;;9.13;8.90;;;2.20;99.90;;;;;;6109673;23;20230;-84
2023/01/19 12:23:19;;;;;;;9.00;8.80;;;2.10;99.90;;;;;;6111755;23;20198;-84
2023/01/19 12:26:04;;;;;;;9.30;9.00;;;2.00;99.90;;;;;;6111074;23;20202;-83
2023/01/19 12:28:37;;;;;;;9.20;8.90;;;1.90;99.90;;;;;;6111171;23;20240;-84
2023/01/19 12:31:07;;;;;;;9.13;8.87;;;1.80;99.90;;;;;;6110097;23;20265;-84
2023/01/19 12:33:37;;;;;;;9.10;8.80;;;1.70;99.90;;;;;;6111146;23;20212;-84
2023/01/19 12:36:12;;;;;;;8.77;8.57;;;1.70;99.90;;;;;;6112972;23;20205;-84
2023/01/19 12:38:48;;;;;;;8.87;8.67;;;1.70;99.90;;;;;;6113820;23;20197;-84
2023/01/19 12:41:35;;;;;;;9.20;8.90;;;1.70;99.90;;;;;;6117177;23;20232;-84
2023/01/19 12:44:29;;;;;;;8.70;8.50;;;1.70;99.90;;;;;;6129355;23;20189;-84
2023/01/19 12:47:03;;;;;;;9.00;8.80;;;1.70;99.90;;;;;;6122541;23;20990;-84
2023/01/19 12:49:44;;;;;;;9.10;8.80;;;1.70;99.90;;;;;;6112390;23;20272;-84
2023/01/19 12:52:32;;;;;;;8.93;8.73;;;1.70;99.90;;;;;;6114511;23;20197;-84
2023/01/19 12:55:21;;;;;;;8.80;8.60;;;1.80;99.90;;;;;;6121683;23;20186;-83
2023/01/19 12:57:58;;;;;;;9.30;9.00;;;1.90;99.90;;;;;;6130114;23;20182;-84
2023/01/19 13:00:33;;;;;;;9.50;9.20;;;2.10;99.90;;;;;;6130440;23;20230;-83
2023/01/19 13:03:03;;;;;;;9.40;9.10;;;2.30;99.90;;;;;;6131294;23;20218;-83
2023/01/19 13:05:59;;;;;;;9.33;9.03;;;2.40;99.90;;;;;;6131286;23;20225;-84
2023/01/19 13:08:57;;;;;;;9.33;9.03;;;2.50;99.90;;;;;;6132058;23;20221;-83
2023/01/19 13:11:33;;;;;;;9.37;9.07;;;2.40;99.90;;;;;;6141761;23;20201;-89
2023/01/19 13:14:36;;;;;;;9.40;9.10;;;2.30;99.90;;;;;;6160857;23;20196;-87
2023/01/19 13:17:31;;;;;;;9.47;9.17;;;2.10;99.90;;;;;;6161061;23;20180;-86
2023/01/19 13:20:28;;;;;;;9.43;9.13;;;2.10;99.90;;;;;;6160372;23;20187;-89
2023/01/19 13:23:26;;;;;;;9.20;8.90;;;2.00;99.90;;;;;;6126662;23;20185;-89
2023/01/19 13:28:58;;;;;;;9.30;9.00;;;1.80;99.90;;;;;;6130743;23;20178;-86
2023/01/19 13:31:26;;;;;;;9.20;8.90;;;1.80;99.90;;;;;;6117313;23;20205;-87
2023/01/19 13:33:58;;;;;;;9.40;9.10;;;1.80;99.90;;;;;;6111275;23;20198;-87
2023/01/19 13:36:35;;;;;;;9.00;8.80;;;1.80;99.90;;;;;;6112248;23;20194;-87
2023/01/19 13:39:27;;;;;;;8.90;8.70;;;1.90;99.90;;;;;;6108338;23;20218;-89
2023/01/19 13:42:01;;;;;;;9.10;8.80;;;1.80;99.90;;;;;;6108036;23;20680;-88
2023/01/19 13:44:38;;;;;;;9.00;8.80;;;1.90;99.90;;;;;;6108027;23;20225;-88
2023/01/19 13:47:18;;;;;;;8.90;8.70;;;2.00;99.90;;;;;;6108142;23;20204;-88
2023/01/19 13:49:55;;;;;;;9.40;9.10;;;2.10;99.90;;;;;;6121406;23;20194;-88
2023/01/19 13:52:37;;;;;;;9.20;8.90;;;2.10;99.90;;;;;;6115596;23;20208;-88
2023/01/19 13:57:59;;;;;;;9.30;9.00;;;2.20;99.90;;;;;;6110943;23;20272;-89
2023/01/19 14:03:23;;;;;;;9.30;9.00;;;2.10;99.90;;;;;;6106392;23;20226;-88
2023/01/19 14:05:52;;;;;;;9.30;9.00;;;2.10;99.90;;;;;;6106773;23;20225;-85
2023/01/19 14:08:22;;;;;;;8.77;8.57;;;2.10;99.90;;;;;;6107855;23;20193;-89
2023/01/19 14:11:03;;;;;;;9.13;8.83;;;2.10;99.90;;;;;;6108844;23;20220;-88
2023/01/19 14:13:42;;;;;;;8.70;8.50;;;2.10;99.90;;;;;;6107918;23;20229;-89
2023/01/19 14:19:04;;;;;;;8.60;8.40;;;2.00;99.90;;;;;;6109253;23;20205;-89
2023/01/19 14:21:43;;;;;;;9.00;8.80;;;2.00;99.90;;;;;;6108880;23;20220;-89